Time;durP1;ratioP1;P1;durP2;ratioP2;P2;SDS_P1;SDS_P2;PMS_P1;PMS_P2;Temp;Humidity;BMP_temperature;BMP_pressure;BME280_temperature;BME280_humidity;BME280_pressure;Samples;Min_cycle;Max_cycle;Signal;HPM_P1;HPM_P2
2021/07/28 00:01:41;;;;;;;11.23;10.00;;;19.30;99.90;;;;;;5045849;28;20661;-44
2021/07/28 00:04:07;;;;;;;11.90;10.13;;;19.20;99.90;;;;;;5043079;28;20219;-43
2021/07/28 00:06:34;;;;;;;11.13;10.00;;;19.20;99.90;;;;;;5044070;28;20223;-44
2021/07/28 00:09:01;;;;;;;11.80;10.70;;;19.20;99.90;;;;;;5044232;28;20359;-44
2021/07/28 00:11:27;;;;;;;11.27;10.07;;;19.10;99.90;;;;;;5029350;28;20963;-44
2021/07/28 00:13:54;;;;;;;10.50;9.50;;;19.10;99.90;;;;;;5045340;28;20191;-44
2021/07/28 00:16:22;;;;;;;12.07;10.13;;;19.10;99.90;;;;;;5042161;28;20200;-45
2021/07/28 00:18:59;;;;;;;11.67;10.50;;;19.10;99.90;;;;;;5045335;28;20203;-43
2021/07/28 00:24:10;;;;;;;11.43;10.33;;;19.00;99.90;;;;;;5041521;28;20215;-43
2021/07/28 00:26:37;;;;;;;11.70;10.40;;;19.00;99.90;;;;;;5044833;28;20218;-44
2021/07/28 00:29:03;;;;;;;12.93;10.43;;;18.90;99.90;;;;;;5029558;28;20208;-44
2021/07/28 00:31:31;;;;;;;10.40;9.13;;;18.90;99.90;;;;;;5043385;28;20202;-44
2021/07/28 00:33:58;;;;;;;11.73;10.53;;;18.90;99.90;;;;;;5044577;28;20197;-44
2021/07/28 00:36:24;;;;;;;12.67;10.53;;;18.90;99.90;;;;;;5041879;28;20211;-44
2021/07/28 00:38:51;;;;;;;11.07;9.87;;;18.80;99.90;;;;;;5045110;28;20676;-48
2021/07/28 00:41:17;;;;;;;12.00;10.80;;;18.80;99.90;;;;;;5041282;28;20198;-44
2021/07/28 00:43:44;;;;;;;11.03;9.93;;;18.80;99.90;;;;;;5031005;28;20306;-45
2021/07/28 00:46:11;;;;;;;11.83;10.10;;;18.80;99.90;;;;;;5041238;28;20230;-48
2021/07/28 00:48:39;;;;;;;11.20;10.10;;;18.80;99.90;;;;;;5044723;28;20198;-43
2021/07/28 00:51:06;;;;;;;11.37;9.30;;;18.80;99.90;;;;;;5041581;28;20200;-49
2021/07/28 00:53:33;;;;;;;11.30;10.07;;;18.80;99.90;;;;;;5043605;28;20183;-43
2021/07/28 00:56:00;;;;;;;10.43;9.43;;;18.80;99.90;;;;;;5043546;28;20215;-44
2021/07/28 00:58:27;;;;;;;9.83;9.03;;;18.80;99.90;;;;;;5028466;28;20844;-44
2021/07/28 01:00:54;;;;;;;10.30;9.40;;;18.70;99.90;;;;;;5044292;28;20218;-45
2021/07/28 01:03:21;;;;;;;10.90;9.40;;;18.70;99.90;;;;;;5039423;28;20349;-45
2021/07/28 01:05:49;;;;;;;10.70;9.60;;;18.80;99.90;;;;;;5044018;28;20225;-44
2021/07/28 01:08:16;;;;;;;10.80;9.70;;;18.80;99.90;;;;;;5040230;28;20183;-45
2021/07/28 01:10:45;;;;;;;10.70;9.13;;;18.80;99.90;;;;;;5044445;28;20217;-44
2021/07/28 01:13:12;;;;;;;11.00;9.87;;;18.80;99.90;;;;;;5027768;28;20187;-48
2021/07/28 01:15:42;;;;;;;9.73;8.80;;;18.80;99.90;;;;;;5040728;28;20219;-45
2021/07/28 01:18:12;;;;;;;10.63;8.77;;;18.80;99.90;;;;;;5040776;28;20199;-46
2021/07/28 01:20:40;;;;;;;10.07;9.17;;;18.70;99.90;;;;;;5042400;28;20699;-47
2021/07/28 01:23:19;;;;;;;9.37;8.53;;;18.70;99.90;;;;;;5041025;28;20198;-47
2021/07/28 01:25:47;;;;;;;9.17;8.27;;;18.70;99.90;;;;;;5032418;28;21014;-46
2021/07/28 01:28:14;;;;;;;9.30;8.40;;;18.70;99.90;;;;;;5043108;28;20680;-44
2021/07/28 01:30:41;;;;;;;10.43;8.27;;;18.60;99.90;;;;;;5027166;28;20428;-45
2021/07/28 01:33:08;;;;;;;9.80;8.90;;;18.60;99.90;;;;;;5042837;28;20271;-44
2021/07/28 01:35:36;;;;;;;9.93;9.03;;;18.60;99.90;;;;;;5038715;28;20221;-47
2021/07/28 01:38:05;;;;;;;10.10;9.00;;;18.60;99.90;;;;;;5043805;28;20681;-46
2021/07/28 01:40:37;;;;;;;8.47;7.77;;;18.60;99.90;;;;;;5040147;28;20195;-51
2021/07/28 01:43:13;;;;;;;9.80;8.50;;;18.60;99.90;;;;;;5043157;28;20199;-49
2021/07/28 01:45:39;;;;;;;8.37;7.67;;;18.60;99.90;;;;;;5034845;28;20222;-45
2021/07/28 01:48:06;;;;;;;8.13;7.33;;;18.50;99.90;;;;;;5041289;28;20192;-46
2021/07/28 01:50:33;;;;;;;8.30;7.60;;;18.50;99.90;;;;;;5040514;28;20196;-44
2021/07/28 01:53:02;;;;;;;7.80;6.87;;;18.50;99.90;;;;;;5042352;28;20200;-46
2021/07/28 01:55:28;;;;;;;8.40;7.60;;;18.50;99.90;;;;;;5041380;28;20261;-43
2021/07/28 01:57:57;;;;;;;8.13;7.40;;;18.60;99.90;;;;;;5043305;28;20184;-46
2021/07/28 02:00:25;;;;;;;7.67;6.97;;;18.60;99.90;;;;;;5026170;28;20282;-44
2021/07/28 02:02:52;;;;;;;7.67;6.97;;;18.50;99.90;;;;;;5043243;28;20199;-46
2021/07/28 02:05:19;;;;;;;7.87;7.17;;;18.50;99.90;;;;;;5039405;28;20217;-44
2021/07/28 02:07:45;;;;;;;8.00;7.30;;;18.50;99.90;;;;;;5043322;28;20569;-44
2021/07/28 02:10:13;;;;;;;8.03;7.23;;;18.50;99.90;;;;;;5039460;28;20198;-47
2021/07/28 02:12:39;;;;;;;8.10;6.90;;;18.50;99.90;;;;;;5043527;28;20376;-43
2021/07/28 02:15:08;;;;;;;7.30;6.70;;;18.50;99.90;;;;;;5033108;28;20191;-50
2021/07/28 02:17:35;;;;;;;7.67;7.07;;;18.50;99.90;;;;;;5038910;28;20227;-44
2021/07/28 02:20:01;;;;;;;7.07;6.47;;;18.50;99.90;;;;;;5041473;28;20199;-46
2021/07/28 02:22:28;;;;;;;7.90;7.10;;;18.50;99.90;;;;;;5039826;28;20218;-46
2021/07/28 02:24:55;;;;;;;7.90;7.00;;;18.50;99.90;;;;;;5042163;28;20214;-46
2021/07/28 02:27:21;;;;;;;6.90;6.30;;;18.50;99.90;;;;;;5039642;28;20211;-44
2021/07/28 02:29:49;;;;;;;7.73;7.03;;;18.50;99.90;;;;;;5043119;28;20201;-46
2021/07/28 02:32:17;;;;;;;7.97;6.97;;;18.50;99.90;;;;;;5025103;28;20211;-44
2021/07/28 02:34:43;;;;;;;7.33;6.60;;;18.50;99.90;;;;;;5046795;28;20198;-44
2021/07/28 02:37:10;;;;;;;8.77;6.80;;;18.50;99.90;;;;;;5043333;28;20211;-48
2021/07/28 02:39:37;;;;;;;7.63;6.93;;;18.40;99.90;;;;;;5046490;28;20187;-44
2021/07/28 02:42:04;;;;;;;6.83;6.13;;;18.50;99.90;;;;;;5045581;28;20675;-46
2021/07/28 02:44:30;;;;;;;7.20;6.50;;;18.40;99.90;;;;;;5045307;28;20924;-46
2021/07/28 02:46:57;;;;;;;8.03;7.23;;;18.50;99.90;;;;;;5032515;28;20230;-46
2021/07/28 02:49:25;;;;;;;8.33;6.70;;;18.50;99.90;;;;;;5043513;28;20193;-44
2021/07/28 02:51:51;;;;;;;7.20;6.50;;;18.40;99.90;;;;;;5046343;28;20207;-44
2021/07/28 02:54:21;;;;;;;7.60;6.90;;;18.40;99.90;;;;;;5043058;28;20187;-45
2021/07/28 02:56:48;;;;;;;7.80;7.10;;;18.40;99.90;;;;;;5046879;28;20211;-44
2021/07/28 02:59:14;;;;;;;8.00;7.20;;;18.40;99.90;;;;;;5042931;28;20198;-47
2021/07/28 03:01:41;;;;;;;7.43;6.77;;;18.40;99.90;;;;;;5046966;28;20217;-44
2021/07/28 03:04:08;;;;;;;7.57;6.87;;;18.40;99.90;;;;;;5030733;28;20222;-50
2021/07/28 03:06:36;;;;;;;7.33;6.60;;;18.50;99.90;;;;;;5044957;28;20799;-44
2021/07/28 03:09:02;;;;;;;7.60;6.90;;;18.40;99.90;;;;;;5045101;28;20195;-46
2021/07/28 03:11:29;;;;;;;7.90;7.20;;;18.40;99.90;;;;;;5044438;28;20270;-44
2021/07/28 03:13:56;;;;;;;8.40;7.17;;;18.40;99.90;;;;;;5046512;28;20657;-46
2021/07/28 03:16:22;;;;;;;7.23;6.63;;;18.40;99.90;;;;;;5042705;28;20289;-43
2021/07/28 03:18:50;;;;;;;7.17;6.50;;;18.40;99.90;;;;;;5032550;28;20210;-45
2021/07/28 03:21:16;;;;;;;7.20;6.60;;;18.30;99.90;;;;;;5041331;28;20207;-46
2021/07/28 03:23:45;;;;;;;7.10;6.43;;;18.30;99.90;;;;;;5045352;28;20191;-45
2021/07/28 03:26:11;;;;;;;6.27;5.77;;;18.30;99.90;;;;;;5043177;28;20219;-48
2021/07/28 03:28:38;;;;;;;9.93;6.83;;;18.30;99.90;;;;;;5045889;28;20244;-44
2021/07/28 03:31:05;;;;;;;6.90;6.30;;;18.30;99.90;;;;;;5044056;28;20542;-48
2021/07/28 03:33:32;;;;;;;6.47;5.87;;;18.30;99.90;;;;;;5030722;28;22024;-44
2021/07/28 03:35:59;;;;;;;7.53;6.77;;;18.30;99.90;;;;;;5044955;28;20211;-46
2021/07/28 03:38:25;;;;;;;6.30;5.70;;;18.30;99.90;;;;;;5035692;28;20213;-44
2021/07/28 03:40:53;;;;;;;7.00;6.23;;;18.30;99.90;;;;;;5043936;28;20195;-47
2021/07/28 03:43:20;;;;;;;6.40;5.73;;;18.30;99.90;;;;;;5043535;28;20919;-46
2021/07/28 03:45:46;;;;;;;9.17;5.97;;;18.30;99.90;;;;;;5044184;28;20222;-45
2021/07/28 03:48:13;;;;;;;6.87;6.17;;;18.30;99.90;;;;;;5042484;28;20768;-44
2021/07/28 03:50:40;;;;;;;6.10;5.50;;;18.30;99.90;;;;;;5031734;28;20210;-44
2021/07/28 03:53:06;;;;;;;6.30;5.80;;;18.30;99.90;;;;;;5041458;28;20202;-44
2021/07/28 03:55:33;;;;;;;7.43;6.03;;;18.30;99.90;;;;;;5045740;28;20207;-44
2021/07/28 03:58:01;;;;;;;8.80;7.77;;;18.30;99.90;;;;;;5042930;28;20206;-47
2021/07/28 04:00:28;;;;;;;9.20;7.00;;;18.30;99.90;;;;;;5044346;28;20249;-46
2021/07/28 04:02:54;;;;;;;6.60;5.80;;;18.30;99.90;;;;;;5037535;28;20211;-49
2021/07/28 04:05:21;;;;;;;8.23;6.40;;;18.20;99.90;;;;;;5030359;28;20230;-44
2021/07/28 04:07:55;;;;;;;8.53;6.17;;;18.20;99.90;;;;;;5039828;28;20213;-45
2021/07/28 04:10:21;;;;;;;7.10;6.47;;;18.20;99.90;;;;;;5044145;28;20264;-46
2021/07/28 04:12:48;;;;;;;6.50;5.90;;;18.20;99.90;;;;;;5044849;28;20718;-46
2021/07/28 04:15:17;;;;;;;8.03;7.03;;;18.20;99.90;;;;;;5041114;28;20264;-47
2021/07/28 04:17:43;;;;;;;10.67;7.00;;;18.20;99.90;;;;;;5045711;28;20564;-47
2021/07/28 04:20:10;;;;;;;8.53;7.37;;;18.20;99.90;;;;;;5026430;28;20244;-44
2021/07/28 04:22:37;;;;;;;10.53;7.50;;;18.20;99.90;;;;;;5036777;28;20721;-48
2021/07/28 04:25:05;;;;;;;9.10;6.17;;;18.20;99.90;;;;;;5034104;28;20207;-48
2021/07/28 04:27:32;;;;;;;7.07;6.47;;;18.20;99.90;;;;;;5038472;28;20200;-44
2021/07/28 04:29:58;;;;;;;8.60;6.67;;;18.10;99.90;;;;;;5025919;28;20195;-48
2021/07/28 04:32:26;;;;;;;7.57;6.87;;;18.10;99.90;;;;;;5043390;28;20296;-47
2021/07/28 04:34:53;;;;;;;8.57;6.97;;;18.10;99.90;;;;;;5035253;28;20183;-46
2021/07/28 04:37:20;;;;;;;6.87;5.80;;;18.10;99.90;;;;;;5022298;28;20215;-47
2021/07/28 04:39:48;;;;;;;6.87;6.07;;;18.10;99.90;;;;;;5031992;28;20248;-47
2021/07/28 04:42:14;;;;;;;8.23;5.80;;;18.00;99.90;;;;;;5026076;28;20531;-44
2021/07/28 04:44:41;;;;;;;7.17;6.40;;;18.00;99.90;;;;;;5031525;28;20707;-46
2021/07/28 04:47:08;;;;;;;9.37;6.73;;;18.00;99.90;;;;;;5036660;28;20237;-44
2021/07/28 04:49:36;;;;;;;8.30;6.57;;;18.00;99.90;;;;;;5034499;28;20180;-47
2021/07/28 04:52:03;;;;;;;6.87;6.27;;;18.00;99.90;;;;;;5017707;28;20203;-46
2021/07/28 04:54:29;;;;;;;7.23;6.53;;;17.90;99.90;;;;;;5043126;28;20191;-48
2021/07/28 04:56:56;;;;;;;8.17;7.03;;;18.00;99.90;;;;;;5029943;28;20207;-45
2021/07/28 04:59:22;;;;;;;7.67;6.97;;;17.90;99.90;;;;;;5042072;28;20195;-47
2021/07/28 05:01:49;;;;;;;8.93;7.70;;;18.00;99.90;;;;;;5030298;28;20203;-46
2021/07/28 05:04:15;;;;;;;8.30;7.03;;;18.00;99.90;;;;;;5036416;28;20688;-43
2021/07/28 05:06:43;;;;;;;9.13;8.23;;;18.00;99.90;;;;;;5031744;28;20223;-46
2021/07/28 05:09:12;;;;;;;7.70;7.10;;;18.00;99.90;;;;;;5025231;28;20237;-44
2021/07/28 05:11:39;;;;;;;9.50;7.73;;;18.00;99.90;;;;;;5036373;28;20665;-46
2021/07/28 05:14:05;;;;;;;10.47;8.20;;;18.10;99.90;;;;;;5042461;28;20191;-46
2021/07/28 05:16:32;;;;;;;10.53;7.87;;;18.10;99.90;;;;;;5042188;28;20203;-49
2021/07/28 05:18:59;;;;;;;8.67;7.77;;;18.10;99.90;;;;;;5027042;28;20927;-45
2021/07/28 05:21:26;;;;;;;9.00;7.40;;;18.10;99.90;;;;;;5030793;28;20248;-50
2021/07/28 05:23:54;;;;;;;8.93;7.70;;;18.10;99.90;;;;;;5013282;28;20624;-45
2021/07/28 05:26:20;;;;;;;9.90;8.73;;;18.20;99.90;;;;;;5036705;28;20223;-44
2021/07/28 05:28:47;;;;;;;10.40;9.10;;;18.20;99.90;;;;;;5032352;28;20201;-48
2021/07/28 05:31:15;;;;;;;11.53;8.47;;;18.20;99.90;;;;;;5040997;28;20199;-49
2021/07/28 05:33:42;;;;;;;10.07;9.07;;;18.30;99.90;;;;;;5036574;28;20203;-46
2021/07/28 05:36:09;;;;;;;8.30;7.50;;;18.30;99.90;;;;;;5041441;28;20215;-44
2021/07/28 05:38:36;;;;;;;11.10;8.53;;;18.30;99.90;;;;;;5019369;28;20203;-46
2021/07/28 05:41:04;;;;;;;12.97;10.07;;;18.30;99.90;;;;;;5029068;28;20204;-46
2021/07/28 05:43:32;;;;;;;12.03;9.00;;;18.30;99.90;;;;;;5034685;28;20670;-46
2021/07/28 05:45:58;;;;;;;10.57;8.63;;;18.30;99.90;;;;;;5035672;28;20242;-46
2021/07/28 05:48:25;;;;;;;10.63;9.50;;;18.30;99.90;;;;;;5035695;28;20203;-44
2021/07/28 05:50:51;;;;;;;11.90;10.10;;;18.30;99.90;;;;;;5032991;28;20187;-45
2021/07/28 05:53:19;;;;;;;10.03;8.60;;;18.30;99.90;;;;;;5032981;28;20286;-50
2021/07/28 05:55:45;;;;;;;9.57;8.50;;;18.20;99.90;;;;;;5025384;28;20219;-46
2021/07/28 05:58:13;;;;;;;12.20;10.40;;;18.20;99.90;;;;;;5040880;28;20216;-46
2021/07/28 06:00:40;;;;;;;14.47;11.27;;;18.20;99.90;;;;;;5024918;28;20279;-48
2021/07/28 06:03:06;;;;;;;13.53;10.63;;;18.20;99.90;;;;;;5035682;28;20938;-45
2021/07/28 06:05:33;;;;;;;17.63;13.23;;;18.20;99.90;;;;;;5036424;28;20226;-45
2021/07/28 06:08:00;;;;;;;18.90;10.80;;;18.20;99.90;;;;;;5036118;28;20188;-46
2021/07/28 06:10:27;;;;;;;13.33;10.33;;;18.20;99.90;;;;;;5025774;28;20203;-45
2021/07/28 06:12:53;;;;;;;16.57;12.20;;;18.20;99.90;;;;;;5038763;28;20764;-44
2021/07/28 06:15:21;;;;;;;19.50;12.13;;;18.30;99.90;;;;;;5036528;28;20736;-44
2021/07/28 06:17:48;;;;;;;13.40;11.00;;;18.30;99.90;;;;;;5031058;28;20206;-48
2021/07/28 06:20:17;;;;;;;13.10;10.40;;;18.40;99.90;;;;;;5034584;28;20214;-45
2021/07/28 06:22:44;;;;;;;14.43;10.47;;;18.50;99.90;;;;;;5035674;28;20192;-47
2021/07/28 06:25:12;;;;;;;14.03;11.77;;;18.60;99.90;;;;;;5038627;28;20203;-44
2021/07/28 06:27:39;;;;;;;13.60;10.67;;;18.60;99.90;;;;;;5022694;28;20211;-50
2021/07/28 06:30:06;;;;;;;14.33;10.20;;;18.60;99.90;;;;;;5031325;28;20747;-44
2021/07/28 06:32:35;;;;;;;13.10;9.10;;;18.70;99.90;;;;;;5041424;28;20566;-47
2021/07/28 06:35:01;;;;;;;13.50;9.33;;;18.70;99.90;;;;;;5036565;28;20996;-44
2021/07/28 06:37:28;;;;;;;14.13;11.20;;;18.80;99.90;;;;;;5042268;28;20198;-48
2021/07/28 06:39:55;;;;;;;11.20;9.40;;;18.80;99.90;;;;;;5038639;28;20192;-45
2021/07/28 06:42:21;;;;;;;10.07;8.87;;;18.90;99.90;;;;;;5029440;28;20211;-45
2021/07/28 06:44:49;;;;;;;10.63;8.13;;;19.10;99.90;;;;;;5033352;28;20882;-44
2021/07/28 06:47:16;;;;;;;10.30;8.97;;;19.20;99.90;;;;;;5036828;28;20575;-45
2021/07/28 06:49:44;;;;;;;9.70;7.97;;;19.20;99.90;;;;;;5035831;28;20210;-49
2021/07/28 06:52:11;;;;;;;9.97;7.97;;;19.30;99.90;;;;;;5035181;28;20210;-47
2021/07/28 06:54:37;;;;;;;10.03;7.87;;;19.30;99.90;;;;;;5019170;28;20201;-45
2021/07/28 06:57:04;;;;;;;8.40;7.13;;;19.40;99.90;;;;;;5025848;28;20226;-51
2021/07/28 06:59:31;;;;;;;11.33;7.90;;;19.40;99.90;;;;;;5036296;28;20400;-45
2021/07/28 07:01:57;;;;;;;8.90;7.97;;;19.50;99.90;;;;;;5036814;28;20214;-46
2021/07/28 07:04:24;;;;;;;8.57;7.70;;;19.50;99.90;;;;;;5035406;28;20198;-44
2021/07/28 07:06:54;;;;;;;11.33;8.43;;;19.50;99.90;;;;;;5042588;28;20305;-45
2021/07/28 07:09:21;;;;;;;8.43;7.50;;;19.60;99.90;;;;;;5037538;28;20924;-45
2021/07/28 07:11:47;;;;;;;8.30;7.17;;;19.60;99.90;;;;;;5042480;28;20206;-44
2021/07/28 07:14:14;;;;;;;9.27;8.17;;;19.70;99.90;;;;;;5024344;28;20218;-45
2021/07/28 07:16:41;;;;;;;8.37;7.47;;;19.70;99.90;;;;;;5041424;28;20219;-45
2021/07/28 07:19:07;;;;;;;9.37;8.37;;;19.60;99.90;;;;;;5040768;28;20214;-46
2021/07/28 07:21:34;;;;;;;11.53;8.40;;;19.60;99.90;;;;;;5051495;28;20200;-45
2021/07/28 07:24:02;;;;;;;14.47;8.87;;;19.50;99.90;;;;;;5045513;28;20202;-49
2021/07/28 07:26:28;;;;;;;8.20;7.43;;;19.60;99.90;;;;;;5042465;28;20811;-46
2021/07/28 07:28:55;;;;;;;9.40;7.50;;;19.70;99.90;;;;;;5029061;28;20206;-49
2021/07/28 07:31:22;;;;;;;8.77;7.97;;;19.70;99.90;;;;;;5041846;28;20190;-44
2021/07/28 07:33:48;;;;;;;9.87;7.23;;;19.70;99.90;;;;;;5045920;28;20702;-44
2021/07/28 07:36:17;;;;;;;8.87;7.53;;;19.80;99.90;;;;;;5047330;28;20223;-49
2021/07/28 07:38:44;;;;;;;9.23;8.37;;;20.00;99.90;;;;;;5051223;28;20273;-46
2021/07/28 07:41:12;;;;;;;8.97;7.70;;;20.00;99.90;;;;;;5043456;28;20196;-45
2021/07/28 07:43:39;;;;;;;9.20;8.30;;;20.10;99.90;;;;;;5029019;28;20214;-45
2021/07/28 07:46:05;;;;;;;8.77;7.10;;;20.10;99.90;;;;;;5043483;28;20222;-48
2021/07/28 07:48:32;;;;;;;7.70;6.87;;;20.10;99.90;;;;;;5043050;28;20786;-44
2021/07/28 07:50:59;;;;;;;12.43;7.73;;;20.20;99.90;;;;;;5045331;28;20244;-44
2021/07/28 07:53:26;;;;;;;8.40;7.60;;;20.20;99.90;;;;;;5039191;28;20199;-43
2021/07/28 07:55:55;;;;;;;8.40;7.60;;;20.40;99.90;;;;;;5044913;28;20207;-46
2021/07/28 07:58:23;;;;;;;7.60;6.90;;;20.50;99.90;;;;;;5041205;28;20187;-46
2021/07/28 08:00:49;;;;;;;7.30;6.17;;;20.50;99.90;;;;;;5031281;28;20707;-45
2021/07/28 08:03:16;;;;;;;9.03;8.00;;;20.40;99.90;;;;;;5040594;28;20191;-48
2021/07/28 08:05:43;;;;;;;7.97;6.33;;;20.40;99.90;;;;;;5041182;28;20218;-49
2021/07/28 08:08:09;;;;;;;6.90;6.30;;;20.50;99.90;;;;;;5055111;28;20199;-46
2021/07/28 08:10:36;;;;;;;6.10;5.57;;;20.60;99.90;;;;;;5053753;28;20191;-46
2021/07/28 08:13:03;;;;;;;6.37;5.53;;;20.70;99.90;;;;;;5043478;28;20203;-51
2021/07/28 08:15:31;;;;;;;7.97;7.10;;;20.80;99.90;;;;;;5028455;28;23935;-49
2021/07/28 08:18:00;;;;;;;6.80;6.10;;;20.80;99.90;;;;;;5044322;28;20195;-50
2021/07/28 08:20:27;;;;;;;7.93;6.73;;;20.70;99.90;;;;;;5031473;28;20204;-48
2021/07/28 08:22:53;;;;;;;6.43;5.83;;;20.60;99.90;;;;;;5039833;28;20199;-50
2021/07/28 08:25:20;;;;;;;8.03;6.67;;;20.50;99.90;;;;;;5043417;28;20233;-46
2021/07/28 08:27:47;;;;;;;8.80;6.40;;;20.50;99.90;;;;;;5040632;28;20223;-47
2021/07/28 08:30:14;;;;;;;8.13;6.53;;;20.40;99.90;;;;;;5044154;28;20708;-47
2021/07/28 08:32:42;;;;;;;8.27;7.47;;;20.40;99.90;;;;;;5027931;28;20664;-49
2021/07/28 08:35:10;;;;;;;6.87;6.10;;;20.40;99.90;;;;;;5043174;28;20194;-50
2021/07/28 08:37:39;;;;;;;7.23;6.60;;;20.50;99.90;;;;;;5047670;28;20198;-48
2021/07/28 08:40:09;;;;;;;7.13;5.97;;;20.60;99.90;;;;;;5042892;28;20927;-45
2021/07/28 08:42:37;;;;;;;6.97;5.83;;;20.60;99.90;;;;;;5040844;28;20195;-49
2021/07/28 08:45:05;;;;;;;6.53;5.93;;;20.70;99.90;;;;;;5042313;28;20179;-47
2021/07/28 08:47:32;;;;;;;6.43;5.80;;;20.80;99.90;;;;;;5027388;28;20234;-48
2021/07/28 08:50:00;;;;;;;6.37;5.77;;;20.80;99.90;;;;;;5035444;28;20191;-49
2021/07/28 08:52:28;;;;;;;7.40;6.17;;;20.70;99.90;;;;;;5047054;28;20214;-48
2021/07/28 08:54:54;;;;;;;7.07;6.37;;;20.70;99.90;;;;;;5044135;28;20195;-46
2021/07/28 08:57:21;;;;;;;7.87;6.83;;;20.70;99.90;;;;;;5042606;28;20717;-48
2021/07/28 08:59:50;;;;;;;6.83;6.13;;;20.70;99.90;;;;;;5039769;28;20194;-44
2021/07/28 09:02:18;;;;;;;7.30;6.70;;;20.90;99.90;;;;;;5028024;28;20214;-44
2021/07/28 09:04:44;;;;;;;6.40;5.80;;;21.00;99.90;;;;;;5038586;28;20202;-45
2021/07/28 09:07:17;;;;;;;5.30;4.80;;;21.10;99.90;;;;;;5043382;28;20218;-44
2021/07/28 09:09:51;;;;;;;6.17;5.07;;;21.30;99.90;;;;;;5040636;28;20207;-47
2021/07/28 09:12:18;;;;;;;5.83;5.33;;;21.20;99.90;;;;;;5042086;28;20192;-46
2021/07/28 09:14:57;;;;;;;4.60;4.20;;;21.20;99.90;;;;;;5039186;28;20195;-48
2021/07/28 09:17:27;;;;;;;5.17;4.67;;;21.20;99.90;;;;;;5025045;28;20219;-44
2021/07/28 09:19:54;;;;;;;4.20;3.90;;;21.30;99.90;;;;;;5039929;28;20260;-44
2021/07/28 09:22:23;;;;;;;4.27;3.87;;;21.40;99.90;;;;;;5045518;28;20195;-44
2021/07/28 09:25:15;;;;;;;6.60;4.63;;;21.30;99.90;;;;;;5039212;28;20959;-46
2021/07/28 09:27:44;;;;;;;4.13;3.70;;;21.40;99.90;;;;;;5043532;28;20203;-50
2021/07/28 09:30:16;;;;;;;4.50;4.10;;;21.40;99.90;;;;;;5043503;28;20471;-45
2021/07/28 09:33:00;;;;;;;4.27;3.93;;;21.60;99.90;;;;;;5017386;28;20214;-47
2021/07/28 09:35:57;;;;;;;6.10;4.00;;;21.70;99.90;;;;;;5043802;28;20211;-49
2021/07/28 09:38:31;;;;;;;5.87;4.20;;;21.90;99.90;;;;;;5036217;28;20217;-45
2021/07/28 09:41:11;;;;;;;5.30;4.50;;;22.10;99.90;;;;;;5038696;28;20257;-45
2021/07/28 09:43:43;;;;;;;5.10;4.70;;;22.20;99.90;;;;;;5047043;28;20199;-46
2021/07/28 09:46:21;;;;;;;5.23;4.73;;;22.30;99.90;;;;;;5039930;28;20215;-44
2021/07/28 09:48:48;;;;;;;3.87;3.60;;;22.30;99.90;;;;;;5023473;28;20233;-46
2021/07/28 09:51:23;;;;;;;4.67;4.27;;;22.30;99.90;;;;;;5043395;28;20226;-44
2021/07/28 09:53:55;;;;;;;4.67;4.27;;;22.40;99.90;;;;;;5034561;28;20198;-44
2021/07/28 09:56:29;;;;;;;4.80;4.40;;;22.30;99.90;;;;;;5042764;28;20211;-44
2021/07/28 09:58:57;;;;;;;4.07;3.72;;;22.40;99.90;;;;;;5041944;28;20195;-45
2021/07/28 10:01:25;;;;;;;5.10;4.40;;;22.50;99.90;;;;;;5042272;28;20652;-44
2021/07/28 10:03:53;;;;;;;4.13;3.80;;;22.50;99.90;;;;;;5021354;28;24300;-47
2021/07/28 10:06:22;;;;;;;6.93;4.40;;;22.30;99.90;;;;;;5042696;28;20214;-47
2021/07/28 10:08:52;;;;;;;5.25;4.82;;;22.10;99.90;;;;;;5038911;28;20195;-45
2021/07/28 10:11:22;;;;;;;5.47;4.80;;;22.00;99.90;;;;;;5040635;28;20274;-47
2021/07/28 10:13:50;;;;;;;5.35;4.70;;;22.10;99.90;;;;;;5032994;28;20415;-45
2021/07/28 10:16:17;;;;;;;4.95;4.38;;;22.20;99.90;;;;;;5042191;28;20315;-44
2021/07/28 10:18:46;;;;;;;5.22;3.53;;;22.20;99.90;;;;;;5036368;28;20202;-46
2021/07/28 10:21:13;;;;;;;4.00;3.70;;;22.40;99.90;;;;;;5028972;28;20617;-45
2021/07/28 10:23:41;;;;;;;6.28;5.47;;;22.50;99.90;;;;;;5038487;28;20202;-46
2021/07/28 10:26:08;;;;;;;5.28;4.78;;;22.60;99.90;;;;;;5039075;28;20230;-45
2021/07/28 10:28:36;;;;;;;5.10;4.70;;;22.70;99.90;;;;;;5038857;28;20226;-45
2021/07/28 10:31:14;;;;;;;5.13;4.70;;;22.70;99.90;;;;;;5033690;28;20952;-44
2021/07/28 10:33:51;;;;;;;5.00;4.60;;;22.70;99.90;;;;;;5040124;28;20286;-46
2021/07/28 10:36:19;;;;;;;3.90;3.60;;;23.20;99.90;;;;;;5028827;28;20221;-47
2021/07/28 10:38:52;;;;;;;5.63;5.13;;;22.80;99.90;;;;;;5046817;28;20203;-46
2021/07/28 10:41:52;;;;;;;5.20;4.10;;;22.90;99.90;;;;;;5055727;28;20653;-44
2021/07/28 10:44:22;;;;;;;4.82;4.43;;;22.80;99.90;;;;;;5039643;28;20199;-47
2021/07/28 10:47:21;;;;;;;5.50;4.45;;;22.80;99.90;;;;;;5038549;28;20799;-44
2021/07/28 10:49:49;;;;;;;5.85;4.10;;;22.90;99.90;;;;;;5024529;28;20270;-44
2021/07/28 10:52:44;;;;;;;4.45;4.00;;;22.90;99.90;;;;;;5024136;28;20226;-46
2021/07/28 10:55:16;;;;;;;6.57;4.85;;;23.00;99.90;;;;;;5022223;28;20210;-45
2021/07/28 10:58:21;;;;;;;5.00;4.43;;;23.00;99.90;;;;;;5036213;28;20206;-47
2021/07/28 11:00:58;;;;;;;4.38;3.97;;;23.00;99.90;;;;;;5046605;28;20202;-44
2021/07/28 11:03:39;;;;;;;4.88;4.38;;;23.20;99.90;;;;;;5047294;28;20203;-46
2021/07/28 11:06:30;;;;;;;4.35;3.92;;;23.30;99.90;;;;;;5021627;28;20219;-44
2021/07/28 11:09:15;;;;;;;5.20;4.38;;;23.40;99.90;;;;;;5029589;28;21479;-46
2021/07/28 11:11:47;;;;;;;5.88;4.57;;;23.50;99.90;;;;;;5038210;28;20276;-50
2021/07/28 11:14:14;;;;;;;6.03;4.28;;;23.40;99.90;;;;;;5042024;28;20214;-44
2021/07/28 11:16:51;;;;;;;4.47;4.18;;;23.20;99.90;;;;;;5034477;28;20225;-43
2021/07/28 11:19:19;;;;;;;5.95;4.40;;;23.30;99.90;;;;;;5032597;28;20200;-46
2021/07/28 11:21:46;;;;;;;4.35;3.90;;;23.10;99.90;;;;;;5023728;28;20203;-46
2021/07/28 11:24:16;;;;;;;5.07;3.70;;;23.20;99.90;;;;;;5045544;28;20234;-46
2021/07/28 11:26:45;;;;;;;6.93;3.78;;;23.10;99.90;;;;;;5043121;28;20284;-49
2021/07/28 11:29:16;;;;;;;4.90;4.05;;;23.10;99.90;;;;;;5045133;28;20203;-45
2021/07/28 11:31:45;;;;;;;3.72;3.42;;;23.30;99.90;;;;;;5038005;28;20285;-45
2021/07/28 11:34:15;;;;;;;4.10;3.80;;;23.20;99.90;;;;;;5051603;28;20210;-44
2021/07/28 11:36:44;;;;;;;4.03;3.72;;;23.40;99.90;;;;;;5029056;28;20301;-47
2021/07/28 11:39:16;;;;;;;5.72;3.63;;;23.70;99.90;;;;;;5042886;28;20195;-44
2021/07/28 11:41:45;;;;;;;4.05;3.45;;;23.90;99.90;;;;;;5040322;28;20225;-46
2021/07/28 11:44:12;;;;;;;4.90;3.67;;;23.80;99.60;;;;;;5049823;28;20226;-44
2021/07/28 11:46:38;;;;;;;3.90;3.60;;;23.70;98.80;;;;;;5046539;28;20221;-46
2021/07/28 11:49:08;;;;;;;3.90;3.60;;;23.50;98.70;;;;;;5042406;28;20887;-44
2021/07/28 11:51:36;;;;;;;3.97;3.67;;;23.40;98.30;;;;;;5036515;28;20195;-46
2021/07/28 11:54:14;;;;;;;3.90;3.55;;;23.20;98.70;;;;;;5038448;28;20199;-46
2021/07/28 11:56:48;;;;;;;3.92;3.55;;;23.20;98.70;;;;;;5040698;28;20223;-44
2021/07/28 11:59:19;;;;;;;5.85;3.90;;;23.10;99.00;;;;;;5033385;28;20223;-45
2021/07/28 12:01:51;;;;;;;5.20;4.45;;;23.10;99.30;;;;;;5038108;28;20193;-51
2021/07/28 12:04:22;;;;;;;4.88;4.57;;;23.10;99.60;;;;;;5037133;28;20204;-45
2021/07/28 12:06:49;;;;;;;5.82;4.95;;;23.10;99.70;;;;;;5034449;28;20210;-47
2021/07/28 12:09:19;;;;;;;3.75;3.45;;;23.20;99.90;;;;;;5026356;28;20214;-47
2021/07/28 12:11:48;;;;;;;4.10;3.80;;;23.10;99.90;;;;;;5035506;28;20546;-47
2021/07/28 12:14:26;;;;;;;5.80;4.45;;;23.20;99.90;;;;;;5046959;28;20207;-46
2021/07/28 12:16:53;;;;;;;4.03;3.72;;;23.10;99.90;;;;;;5033691;28;20222;-46
2021/07/28 12:19:26;;;;;;;4.80;4.30;;;23.20;99.90;;;;;;5046532;28;20195;-47
2021/07/28 12:21:55;;;;;;;4.25;3.90;;;23.30;99.90;;;;;;5034797;28;20203;-43
2021/07/28 12:24:31;;;;;;;4.55;3.78;;;23.20;99.90;;;;;;5030984;28;20208;-60
2021/07/28 12:27:34;;;;;;;4.82;4.50;;;23.20;99.90;;;;;;5040940;28;20353;-60
2021/07/28 12:30:03;;;;;;;4.47;4.07;;;23.40;99.90;;;;;;5037824;28;20263;-42
2021/07/28 12:32:38;;;;;;;5.53;4.15;;;23.70;99.90;;;;;;5031912;28;20927;-42
2021/07/28 12:35:27;;;;;;;4.68;4.28;;;23.90;99.90;;;;;;5036624;28;20290;-44
2021/07/28 12:38:13;;;;;;;3.63;3.40;;;23.90;99.90;;;;;;5034049;28;20191;-44
2021/07/28 12:40:42;;;;;;;5.75;4.20;;;23.90;99.80;;;;;;5034000;28;20230;-41
2021/07/28 12:43:10;;;;;;;4.82;4.30;;;24.00;99.90;;;;;;5043625;28;20573;-46
2021/07/28 12:45:37;;;;;;;4.18;3.88;;;24.00;99.80;;;;;;5041529;28;20209;-42
2021/07/28 12:48:05;;;;;;;4.38;4.07;;;23.90;99.80;;;;;;5047304;28;20580;-44
2021/07/28 12:50:33;;;;;;;4.38;4.07;;;23.80;99.80;;;;;;5043483;28;20184;-44
2021/07/28 12:53:01;;;;;;;4.47;4.10;;;23.70;99.90;;;;;;5038566;28;20312;-41
2021/07/28 12:55:27;;;;;;;4.72;4.43;;;23.70;99.90;;;;;;5035142;28;20223;-42